Time;durP1;ratioP1;P1;durP2;ratioP2;P2;SDS_P1;SDS_P2;PMS_P1;PMS_P2;Temp;Humidity;BMP_temperature;BMP_pressure;BME280_temperature;BME280_humidity;BME280_pressure;Samples;Min_cycle;Max_cycle;Signal;HPM_P1;HPM_P2
2024/03/25 00:00:44;;;;;;;19.70;3.50;;;6.30;99.90;;;;;;5017142;28;20059;-81
2024/03/25 00:03:09;;;;;;;20.75;3.67;;;6.30;99.90;;;;;;5019014;28;20464;-80
2024/03/25 00:05:35;;;;;;;16.70;3.40;;;6.80;99.90;;;;;;5057422;28;20037;-81
2024/03/25 00:08:01;;;;;;;18.40;3.13;;;6.40;99.90;;;;;;5039408;28;20086;-81
2024/03/25 00:10:27;;;;;;;21.85;4.00;;;6.30;99.90;;;;;;5025051;28;20049;-80
2024/03/25 00:12:55;;;;;;;14.35;3.45;;;6.30;99.90;;;;;;5039302;28;20036;-80
2024/03/25 00:15:23;;;;;;;30.10;4.93;;;6.20;99.90;;;;;;5024156;28;20045;-80
2024/03/25 00:17:52;;;;;;;16.70;3.17;;;6.30;99.90;;;;;;5024441;28;20041;-80
2024/03/25 00:20:18;;;;;;;20.67;3.50;;;6.20;99.90;;;;;;5033100;28;20082;-80
2024/03/25 00:22:44;;;;;;;21.75;3.60;;;6.20;99.90;;;;;;5024960;28;20120;-80
2024/03/25 00:25:10;;;;;;;19.20;4.10;;;7.30;99.90;;;;;;5025305;28;20044;-80
2024/03/25 00:27:36;;;;;;;19.67;4.28;;;6.20;99.90;;;;;;5042480;28;20428;-81
2024/03/25 00:30:02;;;;;;;23.90;4.10;;;6.10;99.90;;;;;;5058530;28;20037;-81
2024/03/25 00:32:29;;;;;;;17.50;3.53;;;6.10;99.90;;;;;;5030113;28;20069;-81
2024/03/25 00:34:57;;;;;;;17.83;3.60;;;6.10;99.90;;;;;;5039655;28;20111;-80
2024/03/25 00:37:24;;;;;;;19.50;2.90;;;6.10;99.90;;;;;;5044687;28;20072;-80
2024/03/25 00:39:49;;;;;;;19.00;3.63;;;6.00;99.90;;;;;;5046600;28;20040;-81
2024/03/25 00:42:15;;;;;;;17.73;3.78;;;6.00;99.90;;;;;;5046533;28;20045;-81
2024/03/25 00:44:50;;;;;;;20.27;3.60;;;6.00;99.90;;;;;;5043876;28;20037;-81
2024/03/25 00:47:15;;;;;;;15.82;3.33;;;6.00;99.90;;;;;;5038840;28;20036;-81
2024/03/25 00:49:44;;;;;;;19.20;3.20;;;6.00;99.90;;;;;;5038789;28;20036;-81
2024/03/25 00:52:10;;;;;;;16.38;4.00;;;5.90;99.90;;;;;;5024043;28;20063;-81
2024/03/25 00:54:35;;;;;;;23.95;3.85;;;5.90;99.90;;;;;;5039469;28;20041;-81
2024/03/25 00:57:02;;;;;;;17.45;4.00;;;5.90;99.90;;;;;;5055798;28;20036;-81
2024/03/25 00:59:28;;;;;;;20.60;3.35;;;5.90;99.90;;;;;;5038045;28;20060;-81
2024/03/25 01:01:55;;;;;;;18.85;3.30;;;5.50;99.90;;;;;;5055308;28;20043;-81
2024/03/25 01:04:20;;;;;;;16.15;2.97;;;5.90;99.90;;;;;;5063924;28;20044;-81
2024/03/25 01:06:46;;;;;;;18.80;3.47;;;5.90;99.90;;;;;;5067104;28;20029;-79
2024/03/25 01:09:12;;;;;;;20.08;3.28;;;5.80;99.90;;;;;;5018282;28;20454;-80
2024/03/25 01:11:38;;;;;;;14.20;3.08;;;5.80;99.90;;;;;;5044241;28;20036;-80
2024/03/25 01:14:04;;;;;;;18.20;2.92;;;5.70;99.90;;;;;;5022908;28;20041;-81
2024/03/25 01:16:30;;;;;;;14.77;2.72;;;5.70;99.90;;;;;;5046895;28;20037;-80
2024/03/25 01:18:59;;;;;;;18.88;3.75;;;5.70;99.90;;;;;;5042907;28;20115;-80
2024/03/25 01:21:25;;;;;;;17.40;2.97;;;5.60;99.90;;;;;;5011689;28;20116;-80
2024/03/25 01:23:51;;;;;;;20.27;3.20;;;5.70;99.90;;;;;;5040985;28;20068;-80
2024/03/25 01:26:17;;;;;;;26.40;4.38;;;5.70;99.90;;;;;;5043643;28;20059;-80
2024/03/25 01:28:42;;;;;;;18.25;2.92;;;5.60;99.90;;;;;;5042192;28;20044;-80
2024/03/25 01:31:09;;;;;;;17.30;3.25;;;5.50;99.90;;;;;;5046336;28;20494;-80
2024/03/25 01:33:34;;;;;;;20.38;3.25;;;5.50;99.90;;;;;;5037133;28;20413;-80
2024/03/25 01:36:00;;;;;;;25.23;4.07;;;5.40;99.90;;;;;;5036726;28;20122;-80
2024/03/25 01:38:26;;;;;;;18.25;2.90;;;5.40;99.90;;;;;;5036793;28;20390;-80
2024/03/25 01:40:52;;;;;;;22.80;3.58;;;5.40;99.90;;;;;;5035672;28;20029;-80
2024/03/25 01:43:17;;;;;;;16.15;2.90;;;5.30;99.90;;;;;;5037672;28;20041;-81
2024/03/25 01:45:43;;;;;;;14.90;3.20;;;5.30;99.90;;;;;;5041877;28;20416;-81
2024/03/25 01:48:10;;;;;;;19.25;3.38;;;5.30;99.90;;;;;;5041343;28;20037;-80
2024/03/25 01:50:41;;;;;;;18.90;3.33;;;5.20;99.90;;;;;;5031892;28;20053;-81
2024/03/25 01:53:07;;;;;;;14.10;3.33;;;5.60;99.90;;;;;;5045599;28;20405;-80
2024/03/25 01:55:35;;;;;;;13.43;3.13;;;5.20;99.90;;;;;;5062951;28;20492;-80
2024/03/25 01:58:03;;;;;;;21.45;3.65;;;5.20;99.90;;;;;;5044141;28;20037;-80
2024/03/25 02:00:29;;;;;;;18.90;3.20;;;5.20;99.90;;;;;;5056300;28;20135;-80
2024/03/25 02:02:55;;;;;;;18.48;3.03;;;5.20;99.90;;;;;;5037855;28;20094;-80
2024/03/25 02:05:21;;;;;;;22.65;3.00;;;5.20;99.90;;;;;;5047338;28;20553;-79
2024/03/25 02:07:48;;;;;;;24.05;3.50;;;5.20;99.90;;;;;;5038675;28;20041;-80
2024/03/25 02:10:14;;;;;;;16.45;3.80;;;5.20;99.90;;;;;;5034538;28;20593;-80
2024/03/25 02:12:43;;;;;;;19.92;3.17;;;5.20;99.90;;;;;;5057732;28;20128;-80
2024/03/25 02:15:10;;;;;;;19.48;4.00;;;5.20;99.90;;;;;;5039987;28;20432;-80
2024/03/25 02:17:36;;;;;;;19.00;2.90;;;5.20;99.90;;;;;;5045012;28;20098;-81
2024/03/25 02:20:05;;;;;;;22.55;3.22;;;5.80;99.90;;;;;;5038835;28;20405;-80
2024/03/25 02:22:31;;;;;;;21.95;3.55;;;5.20;99.90;;;;;;5047764;28;20098;-81
2024/03/25 02:24:58;;;;;;;15.68;3.20;;;5.10;99.90;;;;;;5061571;28;20037;-80
2024/03/25 02:27:24;;;;;;;17.67;3.15;;;5.20;99.90;;;;;;5042116;28;20076;-80
2024/03/25 02:29:50;;;;;;;23.70;3.97;;;5.10;99.90;;;;;;5046452;28;20090;-80
2024/03/25 02:32:16;;;;;;;22.90;3.70;;;5.10;99.90;;;;;;5017142;28;20064;-80
2024/03/25 02:34:46;;;;;;;18.80;3.25;;;5.10;99.90;;;;;;5031337;28;20491;-80
2024/03/25 02:37:12;;;;;;;15.43;3.30;;;5.10;99.90;;;;;;5063398;28;20404;-80
2024/03/25 02:39:37;;;;;;;16.42;2.58;;;5.70;99.90;;;;;;5039225;28;20044;-80
2024/03/25 02:42:04;;;;;;;21.70;3.58;;;5.10;99.90;;;;;;5030610;28;20037;-80
2024/03/25 02:44:31;;;;;;;17.80;2.92;;;5.10;99.90;;;;;;5034096;28;20041;-80
2024/03/25 02:46:57;;;;;;;24.20;4.20;;;5.10;99.90;;;;;;5055175;28;20509;-80
2024/03/25 02:49:23;;;;;;;19.88;3.35;;;5.00;99.90;;;;;;5058474;28;20043;-80
2024/03/25 02:51:49;;;;;;;22.48;3.33;;;5.00;99.90;;;;;;5048487;28;20040;-79
2024/03/25 02:54:14;;;;;;;14.77;3.45;;;5.10;99.90;;;;;;5019591;28;20044;-80
2024/03/25 02:56:40;;;;;;;22.50;3.38;;;5.10;99.90;;;;;;5038902;28;20041;-80
2024/03/25 02:59:06;;;;;;;15.63;2.92;;;5.10;99.90;;;;;;5022047;28;20478;-80
2024/03/25 03:01:32;;;;;;;19.10;3.92;;;5.10;99.90;;;;;;5038696;28;20029;-80
2024/03/25 03:03:58;;;;;;;23.20;3.55;;;5.10;99.90;;;;;;5039642;28;20496;-80
2024/03/25 03:06:23;;;;;;;20.17;3.42;;;5.10;99.90;;;;;;5043853;28;20054;-80
2024/03/25 03:08:49;;;;;;;23.88;3.70;;;5.10;99.90;;;;;;5038478;28;20072;-80
2024/03/25 03:11:14;;;;;;;19.92;3.55;;;5.10;99.90;;;;;;5032732;28;20041;-80
2024/03/25 03:13:40;;;;;;;18.95;3.30;;;5.10;99.90;;;;;;5024321;28;20041;-80
2024/03/25 03:16:06;;;;;;;16.42;2.90;;;5.10;99.90;;;;;;5033998;28;20532;-79
2024/03/25 03:18:31;;;;;;;19.30;2.95;;;5.20;99.90;;;;;;5021859;28;20040;-79
2024/03/25 03:20:57;;;;;;;23.52;3.45;;;5.20;99.90;;;;;;5043655;28;20037;-80
2024/03/25 03:23:23;;;;;;;21.38;3.35;;;5.30;99.90;;;;;;5036866;28;20037;-80
2024/03/25 03:25:49;;;;;;;18.17;3.55;;;5.20;99.90;;;;;;5016424;28;20032;-80
2024/03/25 03:28:15;;;;;;;20.75;3.15;;;5.20;99.90;;;;;;5020257;28;20405;-80
2024/03/25 03:30:41;;;;;;;21.05;3.22;;;5.20;99.90;;;;;;5050277;28;20036;-80
2024/03/25 03:33:07;;;;;;;15.10;2.75;;;5.30;99.90;;;;;;5029718;28;20087;-80
2024/03/25 03:35:33;;;;;;;15.45;3.10;;;5.30;99.90;;;;;;5033020;28;20447;-80
2024/03/25 03:37:59;;;;;;;19.25;4.47;;;5.30;99.90;;;;;;5036342;28;20120;-81
2024/03/25 03:40:25;;;;;;;15.38;3.40;;;5.30;99.90;;;;;;5035937;28;20557;-80
2024/03/25 03:42:50;;;;;;;22.17;3.03;;;5.30;99.90;;;;;;5031767;28;20049;-80
2024/03/25 03:45:16;;;;;;;17.75;2.92;;;5.30;99.90;;;;;;5036185;28;20044;-80
2024/03/25 03:47:41;;;;;;;21.00;3.45;;;5.20;99.90;;;;;;5053934;28;20437;-80
2024/03/25 03:50:07;;;;;;;17.45;3.10;;;5.20;99.90;;;;;;5033830;28;20550;-80
2024/03/25 03:52:33;;;;;;;19.58;3.10;;;5.20;99.90;;;;;;5036840;28;20063;-80
2024/03/25 03:54:59;;;;;;;20.80;2.85;;;5.20;99.90;;;;;;5034973;28;20517;-80
2024/03/25 03:57:28;;;;;;;17.85;2.92;;;5.10;99.90;;;;;;5052157;28;20036;-80
2024/03/25 03:59:54;;;;;;;19.52;3.60;;;5.10;99.90;;;;;;5045001;28;20406;-80
2024/03/25 04:02:20;;;;;;;14.88;2.92;;;5.10;99.90;;;;;;5032426;28;20045;-80
2024/03/25 04:04:46;;;;;;;22.90;3.13;;;5.10;99.90;;;;;;5044484;28;20055;-80
2024/03/25 04:07:12;;;;;;;20.70;3.33;;;5.10;99.90;;;;;;5044275;28;20119;-80
2024/03/25 04:09:38;;;;;;;11.50;3.00;;;5.10;99.90;;;;;;5058935;28;20523;-80
2024/03/25 04:12:05;;;;;;;21.88;3.08;;;5.10;99.90;;;;;;5052619;28;20045;-80
2024/03/25 04:14:31;;;;;;;18.45;3.45;;;5.20;99.90;;;;;;5031650;28;20332;-81
2024/03/25 04:16:56;;;;;;;15.07;3.15;;;5.20;99.90;;;;;;5033644;28;20044;-81
2024/03/25 04:19:27;;;;;;;19.25;2.88;;;5.30;99.90;;;;;;5037772;28;20048;-80
2024/03/25 04:21:53;;;;;;;17.67;3.45;;;5.30;99.90;;;;;;5031775;28;20116;-81
2024/03/25 04:24:19;;;;;;;17.42;3.63;;;5.30;99.90;;;;;;5007915;28;20038;-81
2024/03/25 04:26:45;;;;;;;16.20;2.97;;;5.30;99.90;;;;;;5036617;28;20108;-81
2024/03/25 04:29:11;;;;;;;21.02;2.92;;;5.30;99.90;;;;;;5016741;28;20044;-83
2024/03/25 04:31:37;;;;;;;17.52;2.90;;;5.30;99.90;;;;;;5048062;28;20517;-80
2024/03/25 04:34:04;;;;;;;17.67;3.40;;;5.30;99.90;;;;;;5031092;28;20037;-81
2024/03/25 04:36:30;;;;;;;20.77;2.83;;;5.30;99.90;;;;;;5054330;28;20386;-81
2024/03/25 04:38:57;;;;;;;15.52;2.67;;;5.40;99.90;;;;;;5019492;28;20426;-82
2024/03/25 04:41:22;;;;;;;14.95;2.88;;;5.40;99.90;;;;;;5034441;28;20123;-82
2024/03/25 04:43:48;;;;;;;24.90;3.55;;;5.40;99.90;;;;;;5014853;28;20041;-83
2024/03/25 04:46:14;;;;;;;19.98;3.00;;;5.40;99.90;;;;;;5019883;28;20051;-85
2024/03/25 04:48:39;;;;;;;12.98;2.63;;;5.40;99.90;;;;;;5050179;28;20115;-82
2024/03/25 04:51:06;;;;;;;10.85;2.20;;;5.50;99.90;;;;;;5033758;28;20036;-82
2024/03/25 04:53:31;;;;;;;13.90;2.50;;;5.50;99.90;;;;;;5032326;28;20045;-82
2024/03/25 04:55:57;;;;;;;15.57;2.50;;;5.80;99.90;;;;;;5031525;28;20122;-82
2024/03/25 04:58:23;;;;;;;13.52;2.70;;;5.50;99.90;;;;;;5035271;28;20067;-82
2024/03/25 05:00:48;;;;;;;21.02;2.85;;;5.40;99.90;;;;;;5050046;28;20041;-85
2024/03/25 05:03:14;;;;;;;18.17;3.00;;;5.40;99.90;;;;;;5037715;28;20589;-83
2024/03/25 05:05:39;;;;;;;17.23;3.05;;;5.50;99.90;;;;;;5037797;28;20099;-83
2024/03/25 05:08:05;;;;;;;15.68;2.67;;;5.40;99.90;;;;;;5026298;28;20041;-82
2024/03/25 05:10:31;;;;;;;14.07;2.67;;;5.40;99.90;;;;;;5029391;28;20052;-84
2024/03/25 05:12:57;;;;;;;14.38;2.88;;;5.40;99.90;;;;;;5046382;28;20029;-83
2024/03/25 05:15:22;;;;;;;13.23;2.60;;;5.40;99.90;;;;;;5035082;28;20120;-83
2024/03/25 05:17:48;;;;;;;14.80;3.03;;;5.40;99.90;;;;;;5036106;28;20106;-83
2024/03/25 05:20:14;;;;;;;14.75;2.47;;;5.40;99.90;;;;;;5032765;28;20045;-85
2024/03/25 05:22:40;;;;;;;11.48;2.45;;;5.50;99.90;;;;;;5007482;28;20470;-82
2024/03/25 05:25:05;;;;;;;12.90;2.47;;;5.50;99.90;;;;;;5032173;28;20068;-82
2024/03/25 05:27:31;;;;;;;12.45;2.33;;;5.40;99.90;;;;;;5043881;28;20049;-82
2024/03/25 05:29:57;;;;;;;12.60;2.40;;;5.40;99.90;;;;;;5033395;28;20041;-82
2024/03/25 05:32:22;;;;;;;8.98;2.20;;;5.40;99.90;;;;;;5023097;28;20041;-82
2024/03/25 05:34:48;;;;;;;14.38;1.95;;;5.40;99.90;;;;;;5023161;28;20039;-82
2024/03/25 05:37:14;;;;;;;12.80;2.00;;;5.40;99.90;;;;;;5035540;28;20041;-84
2024/03/25 05:39:39;;;;;;;9.20;2.20;;;5.30;99.90;;;;;;5057040;28;20031;-83
2024/03/25 05:42:05;;;;;;;9.23;2.00;;;5.30;99.90;;;;;;5046989;28;20025;-82
2024/03/25 05:44:31;;;;;;;9.48;2.30;;;5.30;99.90;;;;;;5019130;28;20049;-83
2024/03/25 05:46:57;;;;;;;12.52;2.20;;;5.30;99.90;;;;;;5041212;28;20508;-83
2024/03/25 05:49:23;;;;;;;11.68;2.47;;;5.30;99.90;;;;;;5050782;28;20036;-83
2024/03/25 05:51:48;;;;;;;14.07;2.55;;;5.20;99.90;;;;;;5067332;28;20045;-83
2024/03/25 05:54:14;;;;;;;14.07;2.40;;;5.20;99.90;;;;;;5051550;28;20047;-84
2024/03/25 05:56:40;;;;;;;12.13;2.00;;;5.20;99.90;;;;;;5066958;28;20037;-82
2024/03/25 05:59:06;;;;;;;12.32;2.10;;;5.20;99.90;;;;;;5039685;28;20558;-82
2024/03/25 06:01:31;;;;;;;14.25;2.60;;;5.70;99.90;;;;;;5042485;28;20083;-82
2024/03/25 06:03:57;;;;;;;10.70;1.92;;;5.20;99.90;;;;;;5043232;28;20033;-82
2024/03/25 06:06:23;;;;;;;11.15;2.20;;;5.10;99.90;;;;;;5047314;28;20086;-82
2024/03/25 06:08:50;;;;;;;11.02;1.95;;;5.10;99.90;;;;;;5034398;28;20065;-82
2024/03/25 06:11:17;;;;;;;11.40;1.95;;;5.10;99.90;;;;;;5059081;28;20060;-82
2024/03/25 06:13:47;;;;;;;6.30;2.10;;;5.10;99.90;;;;;;5062882;28;20079;-81
2024/03/25 06:16:13;;;;;;;5.15;1.70;;;5.10;99.90;;;;;;5061058;28;20476;-84
2024/03/25 06:18:40;;;;;;;13.90;2.50;;;5.10;99.90;;;;;;5049427;28;20029;-82
2024/03/25 06:21:06;;;;;;;11.18;2.00;;;5.10;99.90;;;;;;5036404;28;20103;-82
2024/03/25 06:23:31;;;;;;;7.57;2.00;;;5.10;99.90;;;;;;5030617;28;20041;-82
2024/03/25 06:25:57;;;;;;;16.52;2.50;;;5.10;99.90;;;;;;5038134;28;20091;-81
2024/03/25 06:28:23;;;;;;;13.35;2.35;;;5.10;99.90;;;;;;5047768;28;20040;-89
2024/03/25 06:36:21;;;;;;;17.80;2.60;;;5.10;99.90;;;;;;5060776;28;20049;-81
2024/03/25 06:38:47;;;;;;;11.68;2.10;;;5.10;99.90;;;;;;5031695;28;20034;-82
2024/03/25 06:41:12;;;;;;;10.30;2.47;;;5.20;99.90;;;;;;5024060;28;20096;-82
2024/03/25 06:43:39;;;;;;;15.05;2.30;;;5.50;99.90;;;;;;5049310;28;20093;-82
2024/03/25 06:46:05;;;;;;;15.93;2.67;;;5.30;99.90;;;;;;5044263;28;20041;-83
2024/03/25 06:48:31;;;;;;;13.38;2.50;;;5.40;99.90;;;;;;5074007;28;20041;-83
2024/03/25 06:50:58;;;;;;;11.45;2.63;;;5.40;99.90;;;;;;5053419;28;20059;-81
2024/03/25 06:53:24;;;;;;;12.07;2.90;;;5.50;99.90;;;;;;5073241;28;20045;-82
2024/03/25 06:55:57;;;;;;;11.30;2.83;;;5.50;99.90;;;;;;5039220;28;20041;-82
2024/03/25 06:58:25;;;;;;;15.15;2.88;;;5.50;99.90;;;;;;5051319;28;20482;-81
2024/03/25 07:00:51;;;;;;;11.48;2.67;;;5.60;99.90;;;;;;5059983;28;20033;-82
2024/03/25 07:03:18;;;;;;;13.90;2.60;;;5.60;99.90;;;;;;5051229;28;20080;-83
2024/03/25 07:05:47;;;;;;;16.42;3.20;;;6.00;99.90;;;;;;5048471;28;20111;-82
2024/03/25 07:08:13;;;;;;;13.73;2.83;;;5.70;99.90;;;;;;5051637;28;20032;-82
2024/03/25 07:10:41;;;;;;;11.75;2.38;;;5.70;99.90;;;;;;5038325;28;20043;-82
2024/03/25 07:13:07;;;;;;;14.15;2.50;;;5.80;99.90;;;;;;5046390;28;20397;-82
2024/03/25 07:15:33;;;;;;;12.40;2.55;;;5.90;99.90;;;;;;5043627;28;21181;-82
2024/03/25 07:17:59;;;;;;;12.15;2.40;;;5.90;99.90;;;;;;5030652;28;20232;-82
2024/03/25 07:20:26;;;;;;;16.48;2.95;;;5.90;99.90;;;;;;5020440;28;20041;-81
2024/03/25 07:22:55;;;;;;;18.38;3.30;;;5.90;99.90;;;;;;5035173;28;20037;-84
2024/03/25 07:25:21;;;;;;;19.63;3.35;;;6.00;99.90;;;;;;5016387;28;20550;-82
2024/03/25 07:27:46;;;;;;;19.48;2.80;;;5.90;99.90;;;;;;5049319;28;20060;-83
2024/03/25 07:30:12;;;;;;;14.57;3.30;;;5.90;99.90;;;;;;5041788;28;20512;-82
2024/03/25 07:32:38;;;;;;;15.52;3.35;;;6.00;99.90;;;;;;5026738;28;20462;-82
2024/03/25 07:35:04;;;;;;;26.10;3.53;;;6.00;99.90;;;;;;5052423;28;20037;-82
2024/03/25 07:37:31;;;;;;;17.75;3.60;;;6.00;99.90;;;;;;5047804;28;20041;-82
2024/03/25 07:39:56;;;;;;;21.90;3.83;;;6.10;99.90;;;;;;5047815;28;20037;-84
2024/03/25 07:42:22;;;;;;;16.65;3.92;;;6.10;99.90;;;;;;5056469;28;20033;-82
2024/03/25 07:44:47;;;;;;;18.33;3.10;;;6.10;99.90;;;;;;5028800;28;20029;-83
2024/03/25 07:47:13;;;;;;;16.55;3.83;;;6.10;99.90;;;;;;5037480;28;20044;-85
2024/03/25 07:49:39;;;;;;;17.85;4.22;;;6.10;99.90;;;;;;5036845;28;20072;-82
2024/03/25 07:52:06;;;;;;;22.17;4.30;;;6.10;99.90;;;;;;5039814;28;20509;-82
2024/03/25 07:54:31;;;;;;;17.65;3.58;;;6.10;99.90;;;;;;5037930;28;20465;-84
2024/03/25 07:56:57;;;;;;;18.58;3.90;;;6.20;99.90;;;;;;5048524;28;20060;-82
2024/03/25 07:59:23;;;;;;;23.85;3.70;;;6.20;99.90;;;;;;5040085;28;20037;-81
2024/03/25 08:01:48;;;;;;;20.08;3.92;;;6.30;99.90;;;;;;5031280;28;20041;-82
2024/03/25 08:04:14;;;;;;;17.20;3.88;;;6.40;99.90;;;;;;5040290;28;20037;-82
2024/03/25 08:06:39;;;;;;;22.40;3.97;;;6.50;99.90;;;;;;5046945;28;20402;-85
2024/03/25 08:09:05;;;;;;;20.08;4.10;;;6.60;99.90;;;;;;5020387;28;20083;-82
2024/03/25 08:11:31;;;;;;;15.98;3.47;;;6.70;99.90;;;;;;5047837;28;20049;-82
2024/03/25 08:13:57;;;;;;;17.17;3.42;;;6.70;99.90;;;;;;5031353;28;20039;-82
2024/03/25 08:16:23;;;;;;;22.60;3.40;;;6.80;99.90;;;;;;5039832;28;20047;-82
2024/03/25 08:18:48;;;;;;;15.45;3.20;;;6.80;99.90;;;;;;5040044;28;20543;-82
2024/03/25 08:21:14;;;;;;;19.40;3.25;;;6.90;99.90;;;;;;5046686;28;20120;-85
2024/03/25 08:23:40;;;;;;;15.55;3.83;;;7.00;99.90;;;;;;5065757;28;20051;-82
2024/03/25 08:26:06;;;;;;;18.70;3.78;;;6.90;99.90;;;;;;5041226;28;20085;-82
2024/03/25 08:28:32;;;;;;;18.33;3.55;;;6.90;99.90;;;;;;5042275;28;20414;-87
2024/03/25 08:30:58;;;;;;;22.40;3.63;;;7.00;99.90;;;;;;5058057;28;20045;-82
2024/03/25 08:33:24;;;;;;;14.95;3.25;;;7.00;99.90;;;;;;5024757;28;20036;-82
2024/03/25 08:35:49;;;;;;;18.00;3.60;;;7.00;99.90;;;;;;5031576;28;20037;-82
2024/03/25 08:38:15;;;;;;;17.98;3.58;;;7.00;99.90;;;;;;5037380;28;20051;-83
2024/03/25 08:40:40;;;;;;;18.90;3.40;;;7.10;99.90;;;;;;5050126;28;20424;-85
2024/03/25 08:43:06;;;;;;;19.25;4.05;;;7.10;99.90;;;;;;5027930;28;20109;-82
2024/03/25 08:45:32;;;;;;;19.33;4.93;;;7.10;99.90;;;;;;5034510;28;20482;-82
2024/03/25 08:47:58;;;;;;;15.75;3.90;;;7.20;99.90;;;;;;5042038;28;20033;-83
2024/03/25 08:50:23;;;;;;;17.58;3.90;;;7.40;99.90;;;;;;5022923;28;20051;-82
2024/03/25 08:52:49;;;;;;;18.30;3.78;;;7.20;99.90;;;;;;5044869;28;20044;-89
2024/03/25 08:55:15;;;;;;;15.73;3.25;;;7.30;99.90;;;;;;5044535;28;20383;-82
2024/03/25 08:57:40;;;;;;;21.65;3.58;;;7.30;99.90;;;;;;5045934;28;20493;-81
2024/03/25 09:00:10;;;;;;;17.73;3.70;;;7.40;99.90;;;;;;5041089;28;20048;-81
2024/03/25 09:02:36;;;;;;;22.48;3.70;;;7.50;99.90;;;;;;5040221;28;20541;-86
2024/03/25 09:05:05;;;;;;;23.42;4.00;;;7.50;99.90;;;;;;5061245;28;20047;-82
2024/03/25 09:07:31;;;;;;;23.05;3.97;;;7.60;99.90;;;;;;5052663;28;20040;-81
2024/03/25 09:12:41;;;;;;;15.45;3.42;;;7.80;99.90;;;;;;5019617;28;20053;-81
2024/03/25 09:15:07;;;;;;;22.15;4.05;;;7.80;99.90;;;;;;5030387;28;20043;-81
2024/03/25 09:17:32;;;;;;;24.85;3.40;;;7.80;99.90;;;;;;5017263;28;20041;-81
2024/03/25 09:19:58;;;;;;;18.73;3.42;;;7.90;99.90;;;;;;5041344;28;20047;-82
2024/03/25 09:22:23;;;;;;;16.60;3.65;;;8.10;99.90;;;;;;5045030;28;20494;-81
2024/03/25 09:24:50;;;;;;;15.45;3.33;;;8.00;99.90;;;;;;5042290;28;20040;-82
2024/03/25 09:27:16;;;;;;;20.90;3.78;;;8.00;99.90;;;;;;5032568;28;20551;-87
2024/03/25 09:29:42;;;;;;;17.98;3.63;;;8.40;99.90;;;;;;5043419;28;20037;-81
2024/03/25 09:32:08;;;;;;;15.48;3.58;;;8.00;99.90;;;;;;5039014;28;20397;-81
2024/03/25 09:34:33;;;;;;;19.48;3.63;;;8.00;99.90;;;;;;5033548;28;20053;-81
2024/03/25 09:36:59;;;;;;;13.32;2.85;;;8.10;99.90;;;;;;5016006;28;20055;-81
2024/03/25 09:39:24;;;;;;;12.98;2.75;;;8.00;99.90;;;;;;5050675;28;20486;-81
2024/03/25 09:41:52;;;;;;;19.33;3.38;;;8.00;99.90;;;;;;5026367;28;20040;-81
2024/03/25 09:44:20;;;;;;;15.50;2.75;;;8.00;99.90;;;;;;5047110;28;20493;-81
2024/03/25 09:46:46;;;;;;;14.50;3.17;;;8.00;99.90;;;;;;5034024;28;20437;-81
2024/03/25 09:49:13;;;;;;;15.23;2.78;;;8.00;99.90;;;;;;5055291;28;20047;-80
2024/03/25 09:51:39;;;;;;;13.77;3.10;;;8.00;99.90;;;;;;5055017;28;20164;-80
2024/03/25 09:54:04;;;;;;;14.63;3.15;;;8.20;99.90;;;;;;5040318;28;20538;-80
2024/03/25 09:56:31;;;;;;;14.75;2.92;;;8.30;99.90;;;;;;5038927;28;20048;-79
2024/03/25 09:58:57;;;;;;;9.30;2.50;;;8.70;99.90;;;;;;5034411;28;20037;-79
2024/03/25 10:01:23;;;;;;;15.48;3.20;;;8.60;99.90;;;;;;5030244;28;20037;-79
2024/03/25 10:03:48;;;;;;;17.33;3.17;;;8.70;99.90;;;;;;5063491;28;20036;-79
2024/03/25 10:06:14;;;;;;;14.55;2.30;;;8.90;99.90;;;;;;5033829;28;20442;-79
2024/03/25 10:08:39;;;;;;;15.25;2.90;;;9.20;99.90;;;;;;5032726;28;20113;-79
2024/03/25 10:11:05;;;;;;;13.38;2.63;;;9.50;99.90;;;;;;5041505;28;20041;-79
2024/03/25 10:13:31;;;;;;;10.13;2.28;;;9.90;99.90;;;;;;5027344;28;20045;-78
2024/03/25 10:15:56;;;;;;;12.60;2.42;;;9.60;99.90;;;;;;5043948;28;20082;-79
2024/03/25 10:18:22;;;;;;;9.23;2.42;;;9.60;99.90;;;;;;5027443;28;20033;-79
2024/03/25 10:20:51;;;;;;;15.43;2.53;;;9.70;99.90;;;;;;5065413;28;20040;-79
2024/03/25 10:23:22;;;;;;;13.80;2.28;;;9.80;99.90;;;;;;5047312;28;20045;-78
2024/03/25 10:25:48;;;;;;;14.43;2.75;;;9.90;99.90;;;;;;5060989;28;20032;-78
2024/03/25 10:28:14;;;;;;;16.17;2.90;;;9.80;99.90;;;;;;5042608;28;20037;-78
2024/03/25 10:30:41;;;;;;;9.85;1.98;;;9.60;99.90;;;;;;5044948;28;20382;-80
2024/03/25 10:33:07;;;;;;;16.25;3.08;;;9.70;99.90;;;;;;5024841;28;20194;-78
2024/03/25 10:35:37;;;;;;;15.50;2.60;;;9.50;99.90;;;;;;5050989;28;20044;-78
2024/03/25 10:38:13;;;;;;;10.90;2.33;;;9.50;99.90;;;;;;5060079;28;20052;-78
2024/03/25 10:40:40;;;;;;;11.65;2.13;;;9.60;99.90;;;;;;5032391;28;20040;-78
2024/03/25 10:43:08;;;;;;;9.80;1.70;;;9.70;99.90;;;;;;5047816;28;20045;-78
2024/03/25 10:45:51;;;;;;;12.07;2.53;;;9.80;99.90;;;;;;5057539;28;20037;-78
2024/03/25 10:48:26;;;;;;;11.98;2.13;;;10.20;99.90;;;;;;5042536;28;20496;-79
2024/03/25 10:50:56;;;;;;;12.82;2.33;;;10.30;99.90;;;;;;5037049;28;20044;-78
2024/03/25 10:53:25;;;;;;;11.90;1.98;;;10.30;99.90;;;;;;5036604;28;20040;-78
2024/03/25 10:55:54;;;;;;;10.25;2.30;;;10.30;99.90;;;;;;5037412;28;20045;-78
2024/03/25 10:58:22;;;;;;;11.02;2.78;;;10.30;99.90;;;;;;5034699;28;20505;-78
2024/03/25 11:00:49;;;;;;;14.25;2.80;;;10.40;99.90;;;;;;5027862;28;20029;-78
2024/03/25 11:03:15;;;;;;;12.25;2.58;;;10.40;99.90;;;;;;5024348;28;20578;-80
2024/03/25 11:05:41;;;;;;;15.13;3.53;;;10.40;99.90;;;;;;5048855;28;20036;-78
2024/03/25 11:08:14;;;;;;;11.73;2.40;;;10.40;99.90;;;;;;5048363;28;20400;-80
2024/03/25 11:10:41;;;;;;;14.85;2.70;;;10.30;99.90;;;;;;5045963;28;20083;-78
2024/03/25 11:13:16;;;;;;;13.30;2.58;;;10.30;99.90;;;;;;5048939;28;20036;-79
2024/03/25 11:15:47;;;;;;;13.23;2.83;;;10.50;99.90;;;;;;5018125;28;20394;-79
2024/03/25 11:18:14;;;;;;;16.27;2.90;;;10.70;99.90;;;;;;5019022;28;20044;-78
2024/03/25 11:20:40;;;;;;;15.25;2.42;;;10.90;99.90;;;;;;5045493;28;20435;-78
2024/03/25 11:23:15;;;;;;;12.25;2.55;;;11.00;99.90;;;;;;5046909;28;20074;-78
2024/03/25 11:25:41;;;;;;;10.27;2.35;;;11.20;99.90;;;;;;5040546;28;20504;-78
2024/03/25 11:28:09;;;;;;;11.18;2.60;;;11.10;99.90;;;;;;5048291;28;20051;-78
2024/03/25 11:30:36;;;;;;;9.30;2.30;;;11.00;99.90;;;;;;5027184;28;20515;-78
2024/03/25 11:33:04;;;;;;;11.43;2.13;;;10.80;99.90;;;;;;5054397;28;20087;-78
2024/03/25 11:35:30;;;;;;;9.30;2.25;;;10.70;99.90;;;;;;5033333;28;20120;-78
2024/03/25 11:37:56;;;;;;;12.68;2.05;;;10.60;99.90;;;;;;5042874;28;20123;-79
2024/03/25 11:40:21;;;;;;;13.65;2.40;;;10.70;99.90;;;;;;5033743;28;20493;-78
2024/03/25 11:42:47;;;;;;;7.22;1.85;;;10.60;99.90;;;;;;5020758;28;20029;-78
2024/03/25 11:45:17;;;;;;;11.27;2.40;;;10.60;99.90;;;;;;5038584;28;20033;-78
2024/03/25 11:47:45;;;;;;;17.05;3.03;;;10.50;99.90;;;;;;5036723;28;20055;-78
2024/03/25 11:50:13;;;;;;;11.80;2.17;;;10.50;99.90;;;;;;5061457;28;20045;-78
2024/03/25 11:52:39;;;;;;;15.65;2.65;;;10.50;99.90;;;;;;5046637;28;20519;-78
2024/03/25 11:55:05;;;;;;;13.05;2.28;;;10.40;99.90;;;;;;5035045;28;20112;-78
2024/03/25 11:57:31;;;;;;;12.82;2.58;;;10.30;99.90;;;;;;5045508;28;20090;-78
2024/03/25 11:59:58;;;;;;;14.00;2.47;;;10.20;99.90;;;;;;5042546;28;20037;-78
2024/03/25 12:02:24;;;;;;;12.70;2.50;;;10.10;99.90;;;;;;5037526;28;20037;-78
2024/03/25 12:04:50;;;;;;;14.82;2.97;;;10.10;99.90;;;;;;5037486;28;20040;-79
2024/03/25 12:07:16;;;;;;;10.98;2.33;;;10.00;99.90;;;;;;5028129;28;20032;-78
2024/03/25 12:12:26;;;;;;;16.27;2.47;;;10.00;99.90;;;;;;5039403;28;20045;-78
2024/03/25 12:14:53;;;;;;;11.63;2.50;;;10.00;99.90;;;;;;5029816;28;20049;-78
2024/03/25 12:17:20;;;;;;;10.57;2.53;;;10.10;99.90;;;;;;5006525;28;20053;-78
2024/03/25 12:20:05;;;;;;;13.73;2.50;;;10.20;99.90;;;;;;5047576;28;20115;-78
2024/03/25 12:22:35;;;;;;;9.98;2.65;;;10.40;99.90;;;;;;5027972;28;20109;-79
2024/03/25 12:25:02;;;;;;;14.07;3.22;;;10.50;99.90;;;;;;5044445;28;20090;-78
2024/03/25 12:27:28;;;;;;;13.15;2.47;;;10.90;99.90;;;;;;5035484;28;20072;-78
2024/03/25 12:29:58;;;;;;;13.30;3.05;;;10.90;99.90;;;;;;5037503;28;20079;-78
2024/03/25 12:32:44;;;;;;;11.30;3.05;;;11.10;99.90;;;;;;5025235;28;20077;-78
2024/03/25 12:35:17;;;;;;;11.02;2.50;;;11.20;99.90;;;;;;5045640;28;20064;-78
2024/03/25 12:37:45;;;;;;;12.73;2.72;;;11.40;99.90;;;;;;5033286;28;20041;-79
2024/03/25 12:40:25;;;;;;;9.30;2.20;;;11.60;99.90;;;;;;5033666;28;20154;-78
2024/03/25 12:42:53;;;;;;;11.88;2.47;;;11.60;99.90;;;;;;5016192;28;20041;-78
2024/03/25 12:45:23;;;;;;;10.98;2.45;;;11.70;99.90;;;;;;5036258;28;20025;-78
2024/03/25 12:47:49;;;;;;;7.45;2.17;;;11.70;99.90;;;;;;5045140;28;20098;-78
2024/03/25 12:50:14;;;;;;;9.57;2.20;;;11.70;99.90;;;;;;5035646;28;20033;-78
2024/03/25 12:52:40;;;;;;;7.50;2.15;;;11.70;99.90;;;;;;5045485;28;20036;-78